Terminal Aerodrome Forecast
Issued by NWS Wakefield, VA

Current Version | Previous Version | Text Only | Print | Product List | Glossary On
Versions: 1 2 3 4 5 6 7 8 9 10 11 12 13
000
FTUS41 KAKQ 301120
TAFECG
TAF
KECG 301120Z 3012/3112 VRB03KT P6SM SKC
     FM301400 16009KT P6SM SCT250
     FM310400 21005KT P6SM BKN250=

USA.gov is the U.S. government's official web portal to all federal, state and local government web resources and services.